sensor_id;sensor_type;location;lat;lon;timestamp;P1;durP1;ratioP1;P2;durP2;ratioP2
62401;SDS011;48440;51.224;22.506;2023-07-13T00:01:29;8.93;;;6.80;;
62401;SDS011;48440;51.224;22.506;2023-07-13T00:03:56;10.20;;;6.63;;
62401;SDS011;48440;51.224;22.506;2023-07-13T00:06:22;8.68;;;6.15;;
62401;SDS011;48440;51.224;22.506;2023-07-13T00:08:47;8.88;;;6.78;;
62401;SDS011;48440;51.224;22.506;2023-07-13T00:11:14;10.93;;;7.00;;
62401;SDS011;48440;51.224;22.506;2023-07-13T00:13:41;9.88;;;6.90;;
62401;SDS011;48440;51.224;22.506;2023-07-13T00:16:08;9.32;;;6.70;;
62401;SDS011;48440;51.224;22.506;2023-07-13T00:18:34;11.00;;;6.75;;
62401;SDS011;48440;51.224;22.506;2023-07-13T00:21:00;13.18;;;6.40;;
62401;SDS011;48440;51.224;22.506;2023-07-13T00:23:39;10.38;;;7.20;;
62401;SDS011;48440;51.224;22.506;2023-07-13T00:26:07;10.38;;;7.35;;
62401;SDS011;48440;51.224;22.506;2023-07-13T00:28:34;9.40;;;7.03;;
62401;SDS011;48440;51.224;22.506;2023-07-13T00:31:00;12.98;;;7.18;;
62401;SDS011;48440;51.224;22.506;2023-07-13T00:33:27;13.88;;;6.70;;
62401;SDS011;48440;51.224;22.506;2023-07-13T00:35:54;12.20;;;7.20;;
62401;SDS011;48440;51.224;22.506;2023-07-13T00:38:20;10.40;;;7.47;;
62401;SDS011;48440;51.224;22.506;2023-07-13T00:40:47;12.25;;;7.10;;
62401;SDS011;48440;51.224;22.506;2023-07-13T00:43:13;11.05;;;7.07;;
62401;SDS011;48440;51.224;22.506;2023-07-13T00:48:22;9.65;;;7.30;;
62401;SDS011;48440;51.224;22.506;2023-07-13T00:50:54;7.97;;;6.85;;
62401;SDS011;48440;51.224;22.506;2023-07-13T00:53:22;10.10;;;6.53;;
62401;SDS011;48440;51.224;22.506;2023-07-13T00:55:50;12.07;;;7.30;;
62401;SDS011;48440;51.224;22.506;2023-07-13T00:58:18;9.98;;;6.68;;
62401;SDS011;48440;51.224;22.506;2023-07-13T01:00:45;9.63;;;6.75;;
62401;SDS011;48440;51.224;22.506;2023-07-13T01:03:13;10.20;;;6.90;;
62401;SDS011;48440;51.224;22.506;2023-07-13T01:05:39;8.23;;;6.72;;
62401;SDS011;48440;51.224;22.506;2023-07-13T01:08:05;12.77;;;7.40;;
62401;SDS011;48440;51.224;22.506;2023-07-13T01:10:30;12.45;;;7.38;;
62401;SDS011;48440;51.224;22.506;2023-07-13T01:13:03;14.60;;;7.07;;
62401;SDS011;48440;51.224;22.506;2023-07-13T01:18:08;12.98;;;7.35;;
62401;SDS011;48440;51.224;22.506;2023-07-13T01:20:37;12.77;;;7.13;;
62401;SDS011;48440;51.224;22.506;2023-07-13T01:23:08;13.70;;;7.70;;
62401;SDS011;48440;51.224;22.506;2023-07-13T01:25:35;14.90;;;7.47;;
62401;SDS011;48440;51.224;22.506;2023-07-13T01:28:02;15.43;;;8.32;;
62401;SDS011;48440;51.224;22.506;2023-07-13T01:30:29;15.02;;;7.82;;
62401;SDS011;48440;51.224;22.506;2023-07-13T01:32:56;16.05;;;8.38;;
62401;SDS011;48440;51.224;22.506;2023-07-13T01:35:21;17.25;;;8.15;;
62401;SDS011;48440;51.224;22.506;2023-07-13T01:37:47;20.35;;;8.70;;
62401;SDS011;48440;51.224;22.506;2023-07-13T01:40:12;14.27;;;8.38;;
62401;SDS011;48440;51.224;22.506;2023-07-13T01:42:38;19.98;;;8.70;;
62401;SDS011;48440;51.224;22.506;2023-07-13T01:45:03;14.82;;;9.02;;
62401;SDS011;48440;51.224;22.506;2023-07-13T01:47:30;19.20;;;8.93;;
62401;SDS011;48440;51.224;22.506;2023-07-13T01:49:56;20.27;;;9.05;;
62401;SDS011;48440;51.224;22.506;2023-07-13T01:52:22;12.02;;;9.13;;
62401;SDS011;48440;51.224;22.506;2023-07-13T01:54:47;18.70;;;9.40;;
62401;SDS011;48440;51.224;22.506;2023-07-13T01:57:13;15.32;;;8.48;;
62401;SDS011;48440;51.224;22.506;2023-07-13T01:59:38;22.15;;;9.57;;
62401;SDS011;48440;51.224;22.506;2023-07-13T02:02:04;18.27;;;9.38;;
62401;SDS011;48440;51.224;22.506;2023-07-13T02:04:29;16.95;;;9.32;;
62401;SDS011;48440;51.224;22.506;2023-07-13T02:06:55;16.70;;;9.52;;
62401;SDS011;48440;51.224;22.506;2023-07-13T02:09:20;18.45;;;9.35;;
62401;SDS011;48440;51.224;22.506;2023-07-13T02:11:46;14.63;;;8.68;;
62401;SDS011;48440;51.224;22.506;2023-07-13T02:14:11;19.02;;;9.88;;
62401;SDS011;48440;51.224;22.506;2023-07-13T02:16:37;22.02;;;10.27;;
62401;SDS011;48440;51.224;22.506;2023-07-13T02:19:03;20.92;;;10.27;;
62401;SDS011;48440;51.224;22.506;2023-07-13T02:21:28;23.05;;;10.40;;
62401;SDS011;48440;51.224;22.506;2023-07-13T02:23:54;18.30;;;9.50;;
62401;SDS011;48440;51.224;22.506;2023-07-13T02:26:20;23.02;;;11.13;;
62401;SDS011;48440;51.224;22.506;2023-07-13T02:28:45;19.08;;;10.90;;
62401;SDS011;48440;51.224;22.506;2023-07-13T02:31:12;17.90;;;9.82;;
62401;SDS011;48440;51.224;22.506;2023-07-13T02:33:40;22.55;;;11.40;;
62401;SDS011;48440;51.224;22.506;2023-07-13T02:36:06;23.05;;;11.38;;
62401;SDS011;48440;51.224;22.506;2023-07-13T02:38:32;25.85;;;11.18;;
62401;SDS011;48440;51.224;22.506;2023-07-13T02:41:00;20.58;;;10.75;;
62401;SDS011;48440;51.224;22.506;2023-07-13T02:43:26;19.85;;;10.45;;
62401;SDS011;48440;51.224;22.506;2023-07-13T02:45:52;20.92;;;11.90;;
62401;SDS011;48440;51.224;22.506;2023-07-13T02:48:17;23.35;;;11.48;;
62401;SDS011;48440;51.224;22.506;2023-07-13T02:50:46;22.60;;;11.63;;
62401;SDS011;48440;51.224;22.506;2023-07-13T02:53:12;25.13;;;12.05;;
62401;SDS011;48440;51.224;22.506;2023-07-13T02:55:37;26.35;;;12.15;;
62401;SDS011;48440;51.224;22.506;2023-07-13T02:58:03;25.25;;;12.15;;
62401;SDS011;48440;51.224;22.506;2023-07-13T03:00:28;32.40;;;13.15;;
62401;SDS011;48440;51.224;22.506;2023-07-13T03:02:54;40.10;;;12.40;;
62401;SDS011;48440;51.224;22.506;2023-07-13T03:05:25;28.70;;;11.88;;
62401;SDS011;48440;51.224;22.506;2023-07-13T03:07:50;37.45;;;12.73;;
62401;SDS011;48440;51.224;22.506;2023-07-13T03:10:15;35.33;;;12.93;;
62401;SDS011;48440;51.224;22.506;2023-07-13T03:12:41;26.38;;;13.77;;
62401;SDS011;48440;51.224;22.506;2023-07-13T03:15:07;29.52;;;14.50;;
62401;SDS011;48440;51.224;22.506;2023-07-13T03:17:33;30.48;;;13.80;;
62401;SDS011;48440;51.224;22.506;2023-07-13T03:19:58;23.80;;;13.57;;
62401;SDS011;48440;51.224;22.506;2023-07-13T03:22:24;41.72;;;14.35;;
62401;SDS011;48440;51.224;22.506;2023-07-13T03:24:49;38.67;;;13.82;;
62401;SDS011;48440;51.224;22.506;2023-07-13T03:27:15;30.90;;;14.25;;
62401;SDS011;48440;51.224;22.506;2023-07-13T03:29:41;36.13;;;15.02;;
62401;SDS011;48440;51.224;22.506;2023-07-13T03:32:07;29.60;;;13.90;;
62401;SDS011;48440;51.224;22.506;2023-07-13T03:34:33;33.97;;;16.83;;
62401;SDS011;48440;51.224;22.506;2023-07-13T03:36:58;29.90;;;16.85;;
62401;SDS011;48440;51.224;22.506;2023-07-13T03:39:24;30.70;;;15.80;;
62401;SDS011;48440;51.224;22.506;2023-07-13T03:41:49;30.40;;;16.40;;
62401;SDS011;48440;51.224;22.506;2023-07-13T03:44:16;34.55;;;17.63;;
62401;SDS011;48440;51.224;22.506;2023-07-13T03:46:42;37.45;;;18.48;;
62401;SDS011;48440;51.224;22.506;2023-07-13T03:49:07;32.78;;;18.80;;
62401;SDS011;48440;51.224;22.506;2023-07-13T03:51:33;36.13;;;19.73;;
62401;SDS011;48440;51.224;22.506;2023-07-13T03:53:59;42.13;;;20.38;;
62401;SDS011;48440;51.224;22.506;2023-07-13T03:56:24;38.03;;;17.98;;
62401;SDS011;48440;51.224;22.506;2023-07-13T03:58:50;31.33;;;17.25;;
62401;SDS011;48440;51.224;22.506;2023-07-13T04:01:17;36.58;;;17.90;;
62401;SDS011;48440;51.224;22.506;2023-07-13T04:03:44;40.53;;;18.25;;
62401;SDS011;48440;51.224;22.506;2023-07-13T04:06:16;45.25;;;18.10;;
62401;SDS011;48440;51.224;22.506;2023-07-13T04:08:48;37.20;;;18.83;;
62401;SDS011;48440;51.224;22.506;2023-07-13T04:11:15;39.03;;;19.13;;
62401;SDS011;48440;51.224;22.506;2023-07-13T04:13:40;42.72;;;22.30;;
62401;SDS011;48440;51.224;22.506;2023-07-13T04:16:06;40.08;;;21.77;;
62401;SDS011;48440;51.224;22.506;2023-07-13T04:18:32;47.85;;;22.73;;
62401;SDS011;48440;51.224;22.506;2023-07-13T04:20:57;47.85;;;21.13;;
62401;SDS011;48440;51.224;22.506;2023-07-13T04:23:22;41.55;;;20.45;;
62401;SDS011;48440;51.224;22.506;2023-07-13T04:25:48;43.03;;;22.00;;
62401;SDS011;48440;51.224;22.506;2023-07-13T04:28:17;46.25;;;23.05;;
62401;SDS011;48440;51.224;22.506;2023-07-13T04:30:44;39.17;;;21.25;;
62401;SDS011;48440;51.224;22.506;2023-07-13T04:33:10;39.60;;;22.73;;
62401;SDS011;48440;51.224;22.506;2023-07-13T04:35:35;50.45;;;25.73;;
62401;SDS011;48440;51.224;22.506;2023-07-13T04:38:02;46.47;;;24.92;;
62401;SDS011;48440;51.224;22.506;2023-07-13T04:40:28;36.60;;;19.02;;
62401;SDS011;48440;51.224;22.506;2023-07-13T04:42:54;41.75;;;22.27;;
62401;SDS011;48440;51.224;22.506;2023-07-13T04:45:21;40.05;;;23.67;;
62401;SDS011;48440;51.224;22.506;2023-07-13T04:47:49;40.53;;;21.23;;
62401;SDS011;48440;51.224;22.506;2023-07-13T04:50:15;41.25;;;22.25;;
62401;SDS011;48440;51.224;22.506;2023-07-13T04:52:45;34.38;;;19.48;;
62401;SDS011;48440;51.224;22.506;2023-07-13T04:55:10;45.70;;;24.33;;
62401;SDS011;48440;51.224;22.506;2023-07-13T04:57:36;44.88;;;22.65;;
62401;SDS011;48440;51.224;22.506;2023-07-13T05:00:02;43.83;;;21.80;;
62401;SDS011;48440;51.224;22.506;2023-07-13T05:02:31;40.88;;;21.95;;
62401;SDS011;48440;51.224;22.506;2023-07-13T05:04:58;41.20;;;22.65;;
62401;SDS011;48440;51.224;22.506;2023-07-13T05:07:24;45.10;;;24.55;;
62401;SDS011;48440;51.224;22.506;2023-07-13T05:09:51;37.67;;;21.48;;
62401;SDS011;48440;51.224;22.506;2023-07-13T05:12:17;40.97;;;21.75;;
62401;SDS011;48440;51.224;22.506;2023-07-13T05:14:42;38.58;;;21.40;;
62401;SDS011;48440;51.224;22.506;2023-07-13T05:17:08;30.63;;;19.02;;
62401;SDS011;48440;51.224;22.506;2023-07-13T05:19:34;34.67;;;21.83;;
62401;SDS011;48440;51.224;22.506;2023-07-13T05:21:59;29.33;;;18.85;;
62401;SDS011;48440;51.224;22.506;2023-07-13T05:24:25;36.97;;;20.60;;
62401;SDS011;48440;51.224;22.506;2023-07-13T05:26:51;34.45;;;21.77;;
62401;SDS011;48440;51.224;22.506;2023-07-13T05:29:16;29.27;;;18.25;;
62401;SDS011;48440;51.224;22.506;2023-07-13T05:31:42;31.42;;;20.77;;
62401;SDS011;48440;51.224;22.506;2023-07-13T05:34:07;27.70;;;17.63;;
62401;SDS011;48440;51.224;22.506;2023-07-13T05:36:33;29.10;;;19.20;;
62401;SDS011;48440;51.224;22.506;2023-07-13T05:38:58;31.38;;;19.10;;
62401;SDS011;48440;51.224;22.506;2023-07-13T05:41:24;31.02;;;20.52;;
62401;SDS011;48440;51.224;22.506;2023-07-13T05:43:49;30.83;;;21.70;;
62401;SDS011;48440;51.224;22.506;2023-07-13T05:46:15;34.95;;;20.20;;
62401;SDS011;48440;51.224;22.506;2023-07-13T05:48:40;35.95;;;20.98;;
62401;SDS011;48440;51.224;22.506;2023-07-13T05:51:06;31.65;;;20.73;;
62401;SDS011;48440;51.224;22.506;2023-07-13T05:53:33;28.60;;;19.38;;
62401;SDS011;48440;51.224;22.506;2023-07-13T05:56:00;31.80;;;19.63;;
62401;SDS011;48440;51.224;22.506;2023-07-13T05:58:25;27.70;;;18.35;;
62401;SDS011;48440;51.224;22.506;2023-07-13T06:00:58;24.35;;;17.15;;
62401;SDS011;48440;51.224;22.506;2023-07-13T06:03:31;27.45;;;18.02;;
62401;SDS011;48440;51.224;22.506;2023-07-13T06:05:57;27.42;;;18.63;;
62401;SDS011;48440;51.224;22.506;2023-07-13T06:08:25;31.30;;;19.88;;
62401;SDS011;48440;51.224;22.506;2023-07-13T06:10:51;26.95;;;18.17;;
62401;SDS011;48440;51.224;22.506;2023-07-13T06:13:16;22.23;;;15.77;;
62401;SDS011;48440;51.224;22.506;2023-07-13T06:15:43;26.58;;;16.95;;
62401;SDS011;48440;51.224;22.506;2023-07-13T06:18:13;34.10;;;18.27;;
62401;SDS011;48440;51.224;22.506;2023-07-13T06:20:38;19.98;;;13.05;;
62401;SDS011;48440;51.224;22.506;2023-07-13T06:23:06;24.33;;;15.35;;
62401;SDS011;48440;51.224;22.506;2023-07-13T06:25:32;29.00;;;14.18;;
62401;SDS011;48440;51.224;22.506;2023-07-13T06:27:57;20.52;;;14.43;;
62401;SDS011;48440;51.224;22.506;2023-07-13T06:30:22;23.25;;;16.80;;
62401;SDS011;48440;51.224;22.506;2023-07-13T06:32:48;24.10;;;15.50;;
62401;SDS011;48440;51.224;22.506;2023-07-13T06:35:14;27.35;;;14.68;;
62401;SDS011;48440;51.224;22.506;2023-07-13T06:37:39;22.38;;;14.60;;
62401;SDS011;48440;51.224;22.506;2023-07-13T06:40:05;18.05;;;14.18;;
62401;SDS011;48440;51.224;22.506;2023-07-13T06:42:31;18.02;;;12.85;;
62401;SDS011;48440;51.224;22.506;2023-07-13T06:44:57;23.50;;;13.48;;
62401;SDS011;48440;51.224;22.506;2023-07-13T06:47:22;19.95;;;13.38;;
62401;SDS011;48440;51.224;22.506;2023-07-13T06:49:47;15.88;;;11.32;;
62401;SDS011;48440;51.224;22.506;2023-07-13T06:52:13;19.45;;;13.32;;
62401;SDS011;48440;51.224;22.506;2023-07-13T06:54:39;18.65;;;13.63;;
62401;SDS011;48440;51.224;22.506;2023-07-13T06:57:04;21.27;;;12.90;;
62401;SDS011;48440;51.224;22.506;2023-07-13T06:59:30;18.02;;;13.40;;
62401;SDS011;48440;51.224;22.506;2023-07-13T07:01:55;21.25;;;14.05;;
62401;SDS011;48440;51.224;22.506;2023-07-13T07:04:21;20.20;;;15.38;;
62401;SDS011;48440;51.224;22.506;2023-07-13T07:06:46;23.55;;;16.38;;
62401;SDS011;48440;51.224;22.506;2023-07-13T07:09:12;22.25;;;15.35;;
62401;SDS011;48440;51.224;22.506;2023-07-13T07:11:38;21.83;;;14.63;;
62401;SDS011;48440;51.224;22.506;2023-07-13T07:14:04;23.38;;;15.43;;
62401;SDS011;48440;51.224;22.506;2023-07-13T07:16:29;24.38;;;15.40;;
62401;SDS011;48440;51.224;22.506;2023-07-13T07:18:55;21.55;;;14.80;;
62401;SDS011;48440;51.224;22.506;2023-07-13T07:21:20;18.05;;;13.13;;
62401;SDS011;48440;51.224;22.506;2023-07-13T07:23:48;21.33;;;13.82;;
62401;SDS011;48440;51.224;22.506;2023-07-13T07:26:13;20.63;;;13.63;;
62401;SDS011;48440;51.224;22.506;2023-07-13T07:28:39;19.15;;;13.93;;
62401;SDS011;48440;51.224;22.506;2023-07-13T07:31:04;25.75;;;15.60;;
62401;SDS011;48440;51.224;22.506;2023-07-13T07:33:30;21.27;;;14.68;;
62401;SDS011;48440;51.224;22.506;2023-07-13T07:35:57;19.52;;;13.63;;
62401;SDS011;48440;51.224;22.506;2023-07-13T07:38:22;20.10;;;13.93;;
62401;SDS011;48440;51.224;22.506;2023-07-13T07:40:48;22.25;;;14.90;;
62401;SDS011;48440;51.224;22.506;2023-07-13T07:43:13;19.65;;;15.40;;
62401;SDS011;48440;51.224;22.506;2023-07-13T07:45:39;24.30;;;15.02;;
62401;SDS011;48440;51.224;22.506;2023-07-13T07:48:05;18.10;;;14.48;;
62401;SDS011;48440;51.224;22.506;2023-07-13T07:50:31;21.20;;;14.88;;
62401;SDS011;48440;51.224;22.506;2023-07-13T07:52:57;20.98;;;14.95;;
62401;SDS011;48440;51.224;22.506;2023-07-13T07:55:23;19.00;;;15.02;;
62401;SDS011;48440;51.224;22.506;2023-07-13T07:57:51;19.45;;;15.13;;
62401;SDS011;48440;51.224;22.506;2023-07-13T08:00:17;21.45;;;15.15;;
62401;SDS011;48440;51.224;22.506;2023-07-13T08:02:44;22.23;;;14.60;;
62401;SDS011;48440;51.224;22.506;2023-07-13T08:05:10;22.98;;;14.40;;
62401;SDS011;48440;51.224;22.506;2023-07-13T08:07:36;17.25;;;12.75;;
62401;SDS011;48440;51.224;22.506;2023-07-13T08:10:03;17.92;;;14.63;;
62401;SDS011;48440;51.224;22.506;2023-07-13T08:12:35;17.50;;;14.13;;
62401;SDS011;48440;51.224;22.506;2023-07-13T08:15:02;17.70;;;13.98;;
62401;SDS011;48440;51.224;22.506;2023-07-13T08:17:28;18.30;;;13.43;;
62401;SDS011;48440;51.224;22.506;2023-07-13T08:19:54;20.73;;;14.63;;
62401;SDS011;48440;51.224;22.506;2023-07-13T08:22:19;18.13;;;14.30;;
62401;SDS011;48440;51.224;22.506;2023-07-13T08:24:45;18.65;;;14.35;;
62401;SDS011;48440;51.224;22.506;2023-07-13T08:27:12;15.73;;;13.48;;
62401;SDS011;48440;51.224;22.506;2023-07-13T08:29:38;19.77;;;15.82;;
62401;SDS011;48440;51.224;22.506;2023-07-13T08:32:04;19.98;;;15.75;;
62401;SDS011;48440;51.224;22.506;2023-07-13T08:34:34;20.02;;;15.38;;
62401;SDS011;48440;51.224;22.506;2023-07-13T08:36:59;18.92;;;14.32;;
62401;SDS011;48440;51.224;22.506;2023-07-13T08:39:25;17.45;;;14.07;;
62401;SDS011;48440;51.224;22.506;2023-07-13T08:41:54;21.17;;;14.05;;
62401;SDS011;48440;51.224;22.506;2023-07-13T08:44:31;20.83;;;13.60;;
62401;SDS011;48440;51.224;22.506;2023-07-13T08:47:11;19.15;;;15.10;;
62401;SDS011;48440;51.224;22.506;2023-07-13T08:49:38;20.02;;;15.55;;
62401;SDS011;48440;51.224;22.506;2023-07-13T08:52:06;17.85;;;15.35;;
62401;SDS011;48440;51.224;22.506;2023-07-13T08:54:42;21.50;;;15.98;;
62401;SDS011;48440;51.224;22.506;2023-07-13T08:57:14;18.00;;;14.45;;
62401;SDS011;48440;51.224;22.506;2023-07-13T08:59:42;17.90;;;14.02;;
62401;SDS011;48440;51.224;22.506;2023-07-13T09:04:39;16.77;;;14.18;;
62401;SDS011;48440;51.224;22.506;2023-07-13T09:09:42;15.10;;;12.43;;
62401;SDS011;48440;51.224;22.506;2023-07-13T09:12:20;17.98;;;14.15;;
62401;SDS011;48440;51.224;22.506;2023-07-13T09:15:01;16.75;;;13.30;;
62401;SDS011;48440;51.224;22.506;2023-07-13T09:17:41;17.55;;;13.63;;
62401;SDS011;48440;51.224;22.506;2023-07-13T09:22:59;16.92;;;15.02;;
62401;SDS011;48440;51.224;22.506;2023-07-13T09:25:32;14.05;;;12.23;;
62401;SDS011;48440;51.224;22.506;2023-07-13T09:28:02;20.98;;;15.43;;
62401;SDS011;48440;51.224;22.506;2023-07-13T09:30:37;13.23;;;11.82;;
62401;SDS011;48440;51.224;22.506;2023-07-13T09:33:10;20.10;;;14.65;;
62401;SDS011;48440;51.224;22.506;2023-07-13T09:35:35;16.25;;;11.85;;
62401;SDS011;48440;51.224;22.506;2023-07-13T09:38:11;16.83;;;15.13;;
62401;SDS011;48440;51.224;22.506;2023-07-13T09:41:01;18.70;;;14.40;;
62401;SDS011;48440;51.224;22.506;2023-07-13T09:46:35;15.98;;;13.32;;
62401;SDS011;48440;51.224;22.506;2023-07-13T09:49:01;16.48;;;14.05;;
62401;SDS011;48440;51.224;22.506;2023-07-13T09:51:27;17.52;;;13.98;;
62401;SDS011;48440;51.224;22.506;2023-07-13T09:53:53;14.48;;;12.98;;
62401;SDS011;48440;51.224;22.506;2023-07-13T09:56:23;15.60;;;13.13;;
62401;SDS011;48440;51.224;22.506;2023-07-13T09:58:52;15.00;;;12.90;;
62401;SDS011;48440;51.224;22.506;2023-07-13T10:01:39;12.48;;;10.75;;
62401;SDS011;48440;51.224;22.506;2023-07-13T10:04:12;15.10;;;11.10;;
62401;SDS011;48440;51.224;22.506;2023-07-13T10:06:43;14.73;;;11.07;;
62401;SDS011;48440;51.224;22.506;2023-07-13T10:09:13;11.05;;;9.93;;
62401;SDS011;48440;51.224;22.506;2023-07-13T10:11:41;10.52;;;9.20;;
62401;SDS011;48440;51.224;22.506;2023-07-13T10:14:11;13.88;;;10.48;;
62401;SDS011;48440;51.224;22.506;2023-07-13T10:16:40;10.45;;;9.27;;
62401;SDS011;48440;51.224;22.506;2023-07-13T10:24:19;11.75;;;10.10;;
62401;SDS011;48440;51.224;22.506;2023-07-13T10:27:12;11.93;;;10.15;;
62401;SDS011;48440;51.224;22.506;2023-07-13T10:29:46;11.18;;;9.38;;
62401;SDS011;48440;51.224;22.506;2023-07-13T10:32:14;10.82;;;9.73;;
62401;SDS011;48440;51.224;22.506;2023-07-13T10:34:43;11.85;;;9.23;;
62401;SDS011;48440;51.224;22.506;2023-07-13T10:37:16;10.90;;;8.90;;
62401;SDS011;48440;51.224;22.506;2023-07-13T10:39:47;11.45;;;9.13;;
62401;SDS011;48440;51.224;22.506;2023-07-13T10:42:17;10.73;;;8.80;;
62401;SDS011;48440;51.224;22.506;2023-07-13T10:44:50;10.10;;;8.77;;
62401;SDS011;48440;51.224;22.506;2023-07-13T10:47:16;10.77;;;7.80;;
62401;SDS011;48440;51.224;22.506;2023-07-13T10:49:43;9.82;;;7.78;;
62401;SDS011;48440;51.224;22.506;2023-07-13T10:56:01;11.60;;;7.53;;
62401;SDS011;48440;51.224;22.506;2023-07-13T11:03:54;10.68;;;7.95;;
62401;SDS011;48440;51.224;22.506;2023-07-13T11:08:54;11.57;;;7.78;;
62401;SDS011;48440;51.224;22.506;2023-07-13T11:19:44;10.85;;;8.55;;
62401;SDS011;48440;51.224;22.506;2023-07-13T11:21:52;11.57;;;8.75;;
62401;SDS011;48440;51.224;22.506;2023-07-13T11:24:28;14.90;;;9.50;;
62401;SDS011;48440;51.224;22.506;2023-07-13T11:27:22;11.85;;;9.00;;
62401;SDS011;48440;51.224;22.506;2023-07-13T11:30:36;11.68;;;7.68;;
62401;SDS011;48440;51.224;22.506;2023-07-13T11:33:03;8.50;;;7.60;;
62401;SDS011;48440;51.224;22.506;2023-07-13T11:35:40;9.70;;;7.72;;
62401;SDS011;48440;51.224;22.506;2023-07-13T11:38:17;12.75;;;8.70;;
62401;SDS011;48440;51.224;22.506;2023-07-13T11:40:46;9.63;;;8.02;;
62401;SDS011;48440;51.224;22.506;2023-07-13T11:43:14;8.52;;;7.50;;
62401;SDS011;48440;51.224;22.506;2023-07-13T11:45:41;12.13;;;8.32;;
62401;SDS011;48440;51.224;22.506;2023-07-13T11:48:21;9.60;;;8.13;;
62401;SDS011;48440;51.224;22.506;2023-07-13T11:50:50;10.40;;;8.35;;
62401;SDS011;48440;51.224;22.506;2023-07-13T11:53:18;10.77;;;8.50;;
62401;SDS011;48440;51.224;22.506;2023-07-13T11:55:44;11.35;;;8.35;;
62401;SDS011;48440;51.224;22.506;2023-07-13T11:58:11;10.35;;;8.10;;
62401;SDS011;48440;51.224;22.506;2023-07-13T12:00:46;9.65;;;8.57;;
62401;SDS011;48440;51.224;22.506;2023-07-13T12:03:20;9.55;;;8.55;;
62401;SDS011;48440;51.224;22.506;2023-07-13T12:08:50;9.38;;;7.97;;
62401;SDS011;48440;51.224;22.506;2023-07-13T12:11:16;11.93;;;8.93;;
62401;SDS011;48440;51.224;22.506;2023-07-13T12:13:43;14.07;;;9.15;;
62401;SDS011;48440;51.224;22.506;2023-07-13T12:16:16;12.50;;;9.00;;
62401;SDS011;48440;51.224;22.506;2023-07-13T12:18:49;13.13;;;9.77;;
62401;SDS011;48440;51.224;22.506;2023-07-13T12:21:18;13.25;;;10.10;;
62401;SDS011;48440;51.224;22.506;2023-07-13T12:23:47;11.57;;;9.10;;
62401;SDS011;48440;51.224;22.506;2023-07-13T12:26:14;10.32;;;8.63;;
62401;SDS011;48440;51.224;22.506;2023-07-13T12:29:15;11.45;;;9.05;;
62401;SDS011;48440;51.224;22.506;2023-07-13T12:31:37;9.45;;;8.43;;
62401;SDS011;48440;51.224;22.506;2023-07-13T12:34:08;11.38;;;8.63;;
62401;SDS011;48440;51.224;22.506;2023-07-13T12:36:37;11.05;;;9.88;;
62401;SDS011;48440;51.224;22.506;2023-07-13T12:39:17;11.43;;;9.27;;
62401;SDS011;48440;51.224;22.506;2023-07-13T12:41:46;10.55;;;8.63;;
62401;SDS011;48440;51.224;22.506;2023-07-13T12:44:16;9.38;;;8.30;;
62401;SDS011;48440;51.224;22.506;2023-07-13T12:46:54;8.73;;;7.82;;
62401;SDS011;48440;51.224;22.506;2023-07-13T12:49:29;10.70;;;8.25;;
62401;SDS011;48440;51.224;22.506;2023-07-13T12:51:58;10.73;;;8.48;;
62401;SDS011;48440;51.224;22.506;2023-07-13T12:54:25;8.77;;;7.85;;
62401;SDS011;48440;51.224;22.506;2023-07-13T12:56:52;10.10;;;8.55;;
62401;SDS011;48440;51.224;22.506;2023-07-13T12:59:20;8.43;;;7.53;;
62401;SDS011;48440;51.224;22.506;2023-07-13T13:01:47;10.32;;;8.05;;
62401;SDS011;48440;51.224;22.506;2023-07-13T13:04:14;10.25;;;8.02;;
62401;SDS011;48440;51.224;22.506;2023-07-13T13:06:41;10.38;;;8.18;;
62401;SDS011;48440;51.224;22.506;2023-07-13T13:09:12;10.45;;;8.07;;
62401;SDS011;48440;51.224;22.506;2023-07-13T13:11:39;12.20;;;8.18;;
62401;SDS011;48440;51.224;22.506;2023-07-13T13:14:05;9.60;;;8.55;;
62401;SDS011;48440;51.224;22.506;2023-07-13T13:16:33;15.85;;;8.85;;
62401;SDS011;48440;51.224;22.506;2023-07-13T13:19:23;15.57;;;8.77;;
62401;SDS011;48440;51.224;22.506;2023-07-13T13:21:51;10.40;;;8.35;;
62401;SDS011;48440;51.224;22.506;2023-07-13T13:24:19;12.40;;;8.15;;
62401;SDS011;48440;51.224;22.506;2023-07-13T13:26:47;12.55;;;8.75;;
62401;SDS011;48440;51.224;22.506;2023-07-13T13:29:14;11.48;;;9.25;;
62401;SDS011;48440;51.224;22.506;2023-07-13T13:31:41;10.25;;;8.57;;
62401;SDS011;48440;51.224;22.506;2023-07-13T13:34:09;11.02;;;8.30;;
62401;SDS011;48440;51.224;22.506;2023-07-13T13:36:35;9.77;;;7.90;;
62401;SDS011;48440;51.224;22.506;2023-07-13T13:39:01;11.38;;;8.82;;
62401;SDS011;48440;51.224;22.506;2023-07-13T13:41:27;9.52;;;7.95;;
62401;SDS011;48440;51.224;22.506;2023-07-13T13:43:52;9.43;;;8.38;;
62401;SDS011;48440;51.224;22.506;2023-07-13T13:46:18;9.10;;;8.20;;
62401;SDS011;48440;51.224;22.506;2023-07-13T13:48:46;11.55;;;8.32;;
62401;SDS011;48440;51.224;22.506;2023-07-13T13:51:16;9.00;;;8.10;;
62401;SDS011;48440;51.224;22.506;2023-07-13T13:53:45;10.13;;;7.93;;
62401;SDS011;48440;51.224;22.506;2023-07-13T13:56:12;12.77;;;9.10;;
62401;SDS011;48440;51.224;22.506;2023-07-13T13:58:45;11.85;;;10.43;;
62401;SDS011;48440;51.224;22.506;2023-07-13T14:01:16;9.93;;;8.88;;
62401;SDS011;48440;51.224;22.506;2023-07-13T14:03:45;10.82;;;9.70;;
62401;SDS011;48440;51.224;22.506;2023-07-13T14:06:13;11.93;;;8.98;;
62401;SDS011;48440;51.224;22.506;2023-07-13T14:08:40;12.57;;;8.73;;
62401;SDS011;48440;51.224;22.506;2023-07-13T14:11:07;11.63;;;8.75;;
62401;SDS011;48440;51.224;22.506;2023-07-13T14:16:12;9.73;;;8.20;;
62401;SDS011;48440;51.224;22.506;2023-07-13T14:18:43;10.27;;;8.38;;
62401;SDS011;48440;51.224;22.506;2023-07-13T14:21:19;11.00;;;9.85;;
62401;SDS011;48440;51.224;22.506;2023-07-13T14:23:46;13.95;;;10.90;;
62401;SDS011;48440;51.224;22.506;2023-07-13T14:26:19;11.85;;;9.77;;
62401;SDS011;48440;51.224;22.506;2023-07-13T14:28:51;15.23;;;11.30;;
62401;SDS011;48440;51.224;22.506;2023-07-13T14:31:22;21.33;;;12.82;;
62401;SDS011;48440;51.224;22.506;2023-07-13T14:33:49;15.40;;;11.77;;
62401;SDS011;48440;51.224;22.506;2023-07-13T14:36:23;17.85;;;14.43;;
62401;SDS011;48440;51.224;22.506;2023-07-13T14:38:55;17.60;;;14.27;;
62401;SDS011;48440;51.224;22.506;2023-07-13T14:41:26;17.10;;;14.90;;
62401;SDS011;48440;51.224;22.506;2023-07-13T14:43:52;16.88;;;15.07;;
62401;SDS011;48440;51.224;22.506;2023-07-13T14:46:29;17.98;;;15.00;;
62401;SDS011;48440;51.224;22.506;2023-07-13T14:49:10;20.08;;;15.95;;
62401;SDS011;48440;51.224;22.506;2023-07-13T14:51:57;17.02;;;15.13;;
62401;SDS011;48440;51.224;22.506;2023-07-13T14:54:24;17.25;;;15.55;;
62401;SDS011;48440;51.224;22.506;2023-07-13T14:56:50;18.48;;;16.38;;
62401;SDS011;48440;51.224;22.506;2023-07-13T14:59:16;21.50;;;15.20;;
62401;SDS011;48440;51.224;22.506;2023-07-13T15:01:44;16.70;;;14.90;;
62401;SDS011;48440;51.224;22.506;2023-07-13T15:04:10;15.02;;;13.40;;
62401;SDS011;48440;51.224;22.506;2023-07-13T15:09:25;18.17;;;13.60;;
62401;SDS011;48440;51.224;22.506;2023-07-13T15:12:00;20.48;;;14.02;;